Pagina principale
METAR-TAF:

METAR-TAF

Aeroporti :

Maseru, Lesotho

latitudine: 29-27S, longitudine: 027-33E, altezza: 1631 m

Osservazione

Il bollettino è stato emesso 58 minuti fa, alle 12:00 UTC
Vento 5 kt da ovest/sud-ovest
Temperature 19°C
Umidità 60%
Pressione 1021 hPa
Visibilità 10 km o più
Cielo coperto ad un'altezza di 3000 ft

METAR: FXMM 061200Z 25005KT 9999 OVC030 19/11 Q1021 NOSIG

Ora: 14:58 (12:58 UTC)

Previsione

Il bollettino è stato emesso 58 minuti fa, alle 12:00 UTC
Previsione valida dal 06 alle 12 UTC al 07 alle 12 UTC
Vento 6 kt da ovest/sud-ovest
Visibilità 10 km o più
Cielo coperto ad un'altezza di 3000 ft
Evoluzione graduale
dal 07 alle 09 UTC al 07 alle 11 UTC
Vento 10 kt da ovest/nord-ovest

TAF: FXMM 061200Z 0612/0712 25006KT 9999 OVC030 BECMG 0709/0711 30010KT

Osservazioni e previsioni meteorologiche di più di 4000 aeroporti (messaggi METAR e TAF).

Le stazioni disponibili sono rappresentate dai dischi gialli e rossi sulla carta.

Puntare il mouse per vedere il nome della stazione.

Clicca sopra per visualizzare le osservazioni e previsioni meteorologiche.

Per cambiare la mappa : fare clic sui pulsanti verdi con una croce nera per ingrandire, il pulsante verde con un trattino per diminuire, o sulla freccia verde per le mappe adiacenti.


METAR-TAF: